Date,TemperatureHighF,TemperatureAvgF,TemperatureLowF,DewpointHighF,DewpointAvgF,DewpointLowF,HumidityHigh,HumidityAvg,HumidityLow,PressureMaxIn,PressureMinIn,WindSpeedMaxMPH,WindSpeedAvgMPH,GustSpeedMaxMPH,PrecipitationSumIn
2013-1-1,52.2,45.5,39.9,38.5,34.0,28.2,85,65,44,30.33,30.26,31,6,34,0.00
2013-1-2,55.6,47.3,39.2,38.3,32.0,27.1,81,56,39,30.30,30.19,17,4,18,0.00
2013-1-3,55.8,44.1,35.1,41.7,36.4,31.1,87,75,57,30.32,30.22,13,4,13,0.00
2013-1-4,56.5,47.0,39.9,38.8,36.6,32.9,90,69,43,30.34,30.22,16,4,16,0.00
2013-1-5,52.2,45.5,38.8,46.8,41.9,34.9,95,87,78,30.31,30.12,18,2,20,0.35
2013-1-6,51.6,46.3,41.5,44.1,42.4,39.6,94,86,73,30.25,30.11,26,4,27,0.35
2013-1-7,56.7,47.0,39.6,48.0,43.0,37.8,95,87,68,30.32,30.21,8,2,10,0.00
2013-1-8,59.5,49.0,42.6,48.2,44.0,40.8,95,84,65,30.30,30.18,13,4,13,0.01
2013-1-9,53.1,47.0,42.3,49.8,41.7,35.6,93,82,62,30.21,30.04,28,6,32,0.00
2013-1-10,50.4,44.7,39.0,37.4,34.5,32.0,83,68,51,30.25,30.13,20,6,21,0.00
2013-1-11,52.0,44.3,39.6,40.8,35.7,31.6,89,72,62,30.31,30.18,16,4,17,0.00
2013-1-12,49.5,42.9,36.3,36.3,29.9,20.1,87,62,32,30.31,30.20,11,2,13,0.00
2013-1-13,49.5,40.7,31.3,35.1,26.2,17.4,80,57,31,30.32,30.23,12,3,12,0.00
2013-1-14,50.5,42.8,35.8,27.0,20.0,14.4,63,41,28,30.46,30.28,21,5,23,0.00
2013-1-15,51.4,42.4,34.2,32.5,28.2,24.8,77,58,36,30.54,30.45,15,4,17,0.00
2013-1-16,56.5,45.0,35.6,39.4,33.2,28.6,88,65,37,30.49,30.31,17,5,18,0.00
2013-1-17,63.0,51.0,41.2,42.1,32.7,26.6,80,53,26,30.32,30.20,19,4,21,0.00
2013-1-18,63.7,53.5,43.9,37.9,32.9,26.4,76,48,27,30.29,30.18,21,5,24,0.00
2013-1-19,61.9,51.6,38.8,40.6,34.2,23.0,86,56,29,30.30,30.20,22,5,22,0.00
2013-1-20,63.3,51.4,40.8,40.6,32.6,25.0,85,53,26,30.28,30.18,18,4,22,0.00
2013-1-21,64.2,52.2,39.9,38.5,35.0,27.9,84,54,31,30.24,30.13,17,5,20,0.00
2013-1-22,62.4,53.9,44.6,45.0,40.7,36.0,78,62,46,30.16,30.05,13,2,15,0.00
2013-1-23,53.8,50.7,49.1,50.2,46.5,43.0,95,86,74,30.15,30.00,15,2,16,0.04
2013-1-24,59.4,53.6,49.3,51.8,49.4,47.3,94,86,75,30.25,30.12,15,3,17,0.04
2013-1-25,64.0,55.8,50.4,55.0,51.4,48.6,96,86,70,30.25,30.09,13,3,14,0.00
2013-1-26,56.8,51.5,48.0,50.0,43.8,36.1,96,76,48,30.14,30.04,27,8,27,0.00
2013-1-27,54.9,47.6,41.5,41.0,37.8,30.6,83,69,41,30.24,30.12,16,4,19,0.00
2013-1-28,57.9,48.7,41.7,43.7,39.7,36.1,84,72,50,30.35,30.22,16,5,18,0.00
2013-1-29,57.6,49.6,41.9,44.4,41.0,37.2,85,73,56,30.42,30.32,12,2,13,0.00
2013-1-30,62.4,51.4,43.2,47.5,43.8,40.1,91,76,50,30.40,30.31,8,2,9,0.00
2013-1-31,64.2,52.0,43.2,47.8,44.2,40.3,93,76,53,30.35,30.23,12,5,13,0.00